Time;durP1;ratioP1;P1;durP2;ratioP2;P2;SDS_P1;SDS_P2;PMS_P1;PMS_P2;Temp;Humidity;BMP_temperature;BMP_pressure;BME280_temperature;BME280_humidity;BME280_pressure;Samples;Min_cycle;Max_cycle;Signal;HPM_P1;HPM_P2
2022/11/19 00:00:46;;;;;;;;;7.75;7.75;;;;;9.73;79.26;100639.94;5111864;27;45422;-67
2022/11/19 00:03:13;;;;;;;;;18.50;16.50;;;;;9.67;79.42;100637.59;5095395;27;45589;-67
2022/11/19 00:05:40;;;;;;;;;19.50;16.50;;;;;9.66;79.48;100638.53;5093435;27;45558;-68
2022/11/19 00:08:06;;;;;;;;;11.00;10.50;;;;;9.60;79.64;100633.59;5108220;27;47374;-68
2022/11/19 00:10:33;;;;;;;;;14.50;11.25;;;;;9.54;80.22;100628.59;5108560;27;45536;-68
2022/11/19 00:12:59;;;;;;;;;11.50;11.00;;;;;9.48;80.36;100612.97;5100379;27;45390;-69
2022/11/19 00:15:24;;;;;;;;;14.25;14.25;;;;;9.49;80.34;100618.22;5111745;27;46439;-68
2022/11/19 00:17:49;;;;;;;;;9.50;9.50;;;;;9.40;79.99;100600.09;5103216;27;46462;-68
2022/11/19 00:20:18;;;;;;;;;10.50;9.00;;;;;9.64;80.06;100628.94;5106246;27;45393;-69
2022/11/19 00:22:44;;;;;;;;;12.75;11.75;;;;;9.73;79.50;100637.25;5111063;27;45557;-68
2022/11/19 00:25:10;;;;;;;;;17.50;14.75;;;;;9.80;79.31;100639.56;5100198;27;45419;-68
2022/11/19 00:27:36;;;;;;;;;19.50;19.50;;;;;9.79;78.95;100629.88;5112097;27;45423;-68
2022/11/19 00:30:03;;;;;;;;;16.00;14.00;;;;;9.76;79.17;100634.41;5106217;27;45417;-68
2022/11/19 00:32:30;;;;;;;;;13.50;12.50;;;;;9.79;79.12;100640.53;5086316;27;45534;-68
2022/11/19 00:34:55;;;;;;;;;17.00;17.00;;;;;9.79;79.19;100648.53;5096371;27;45396;-67
2022/11/19 00:37:20;;;;;;;;;26.00;21.75;;;;;9.80;78.32;100650.22;5111628;27;45441;-67
2022/11/19 00:39:45;;;;;;;;;18.00;16.00;;;;;9.76;78.58;100642.41;5102609;27;45485;-68
2022/11/19 00:42:11;;;;;;;;;21.75;18.50;;;;;9.76;79.15;100649.56;5106555;27;45336;-66
2022/11/19 00:44:36;;;;;;;;;36.25;32.50;;;;;9.73;78.87;100644.38;5108722;27;45893;-69
2022/11/19 00:47:02;;;;;;;;;19.00;18.50;;;;;9.22;79.41;100557.59;5096833;27;46073;-68
2022/11/19 00:49:27;;;;;;;;;11.75;11.75;;;;;9.68;78.89;100631.34;5097053;27;45491;-68
2022/11/19 00:51:54;;;;;;;;;18.25;14.00;;;;;8.39;78.90;100429.19;5091544;27;45446;-66
2022/11/19 00:54:19;;;;;;;;;11.50;11.50;;;;;9.67;79.23;100642.09;5097642;27;45461;-67
2022/11/19 00:56:45;;;;;;;;;12.75;8.25;;;;;9.64;79.44;100624.47;5094333;27;45465;-67
2022/11/19 00:59:10;;;;;;;;;9.25;9.00;;;;;9.41;79.36;100597.34;5094293;27;45403;-68
2022/11/19 01:01:35;;;;;;;;;13.75;11.00;;;;;9.67;79.29;100632.28;5093123;27;45669;-68
2022/11/19 01:04:01;;;;;;;;;10.75;9.25;;;;;9.63;79.42;100635.22;5097021;27;45509;-68
2022/11/19 01:06:27;;;;;;;;;18.00;15.00;;;;;9.18;79.53;100568.53;5078523;27;46206;-68
2022/11/19 01:08:53;;;;;;;;;20.50;15.50;;;;;9.50;80.03;100637.69;5096948;27;45524;-68
2022/11/19 01:11:28;;;;;;;;;9.75;9.00;;;;;9.46;80.15;100631.72;5094402;27;45547;-68
2022/11/19 01:13:53;;;;;;;;;9.50;9.00;;;;;9.27;80.38;100615.88;5096837;27;45371;-69
2022/11/19 01:16:25;;;;;;;;;8.25;8.25;;;;;9.40;80.41;100638.22;5094199;27;46260;-69
2022/11/19 01:18:51;;;;;;;;;5.75;3.50;;;;;9.42;80.16;100635.47;5092807;27;45380;-68
2022/11/19 01:21:18;;;;;;;;;10.75;10.75;;;;;9.42;80.48;100646.13;5095920;27;45431;-69
2022/11/19 01:23:44;;;;;;;;;18.50;17.25;;;;;9.40;80.58;100672.81;5095668;27;45483;-68
2022/11/19 01:26:11;;;;;;;;;21.50;18.50;;;;;9.39;80.85;100657.81;5095483;27;46577;-69
2022/11/19 01:28:37;;;;;;;;;12.50;12.50;;;;;9.36;80.78;100667.78;5095914;27;45360;-69
2022/11/19 01:31:17;;;;;;;;;7.75;6.25;;;;;9.35;80.26;100666.03;5096428;27;45427;-69
2022/11/19 01:33:43;;;;;;;;;8.75;8.50;;;;;9.19;80.28;100650.06;5095641;27;45397;-69
2022/11/19 01:36:13;;;;;;;;;9.00;8.00;;;;;9.28;80.82;100665.53;5096457;27;47268;-68
2022/11/19 01:38:39;;;;;;;;;9.75;9.75;;;;;9.23;81.41;100667.56;5096272;27;45385;-68
2022/11/19 01:41:05;;;;;;;;;20.50;19.25;;;;;9.24;80.75;100671.97;5096722;27;45827;-69
2022/11/19 01:43:46;;;;;;;;;7.00;7.00;;;;;9.17;81.49;100667.94;5096440;27;45407;-69
2022/11/19 01:46:16;;;;;;;;;7.75;6.25;;;;;9.12;81.62;100660.19;5094777;27;47087;-69
2022/11/19 01:48:47;;;;;;;;;9.75;6.25;;;;;9.04;81.75;100668.59;5095965;27;45698;-68
2022/11/19 01:51:21;;;;;;;;;12.00;9.75;;;;;9.02;81.63;100674.94;5095083;27;45478;-69
2022/11/19 01:53:48;;;;;;;;;7.00;4.00;;;;;9.03;81.81;100677.53;5095908;27;45468;-69
2022/11/19 01:56:19;;;;;;;;;3.00;2.00;;;;;8.98;81.86;100681.38;5093869;27;45618;-67
2022/11/19 01:58:47;;;;;;;;;4.00;4.00;;;;;9.00;81.86;100671.50;5095189;27;45397;-67
2022/11/19 02:01:16;;;;;;;;;3.50;3.50;;;;;9.02;81.91;100667.81;5095152;27;45431;-67
2022/11/19 02:03:42;;;;;;;;;5.00;5.00;;;;;9.04;81.82;100673.94;5095034;27;45380;-67
2022/11/19 02:06:08;;;;;;;;;5.25;5.25;;;;;9.07;81.83;100675.56;5095158;27;47287;-67
2022/11/19 02:08:38;;;;;;;;;11.25;11.25;;;;;9.11;82.15;100673.56;5095320;27;45889;-68
2022/11/19 02:11:39;;;;;;;;;9.50;8.50;;;;;9.13;81.72;100672.56;5095403;27;45513;-68
2022/11/19 02:14:36;;;;;;;;;8.00;7.25;;;;;9.16;81.80;100676.84;5092681;27;45419;-68
2022/11/19 02:17:20;;;;;;;;;8.50;7.00;;;;;9.18;81.42;100685.63;5072226;28;45827;-68
2022/11/19 02:20:30;;;;;;;;;4.00;4.00;;;;;9.23;81.33;100675.56;5072756;27;45534;-68
2022/11/19 02:23:15;;;;;;;;;3.00;3.00;;;;;9.24;81.64;100677.28;5072310;28;45482;-67
2022/11/19 02:26:04;;;;;;;;;9.50;6.25;;;;;9.21;81.62;100677.47;5072082;28;45484;-68
2022/11/19 02:28:38;;;;;;;;;7.50;5.25;;;;;9.22;80.75;100676.53;5071969;28;47020;-67
2022/11/19 02:31:19;;;;;;;;;6.75;3.75;;;;;9.20;81.33;100675.75;5072036;27;45407;-66
2022/11/19 02:33:58;;;;;;;;;6.75;4.25;;;;;8.97;81.63;100643.25;5055565;28;45514;-68
2022/11/19 02:37:03;;;;;;;;;4.00;3.00;;;;;9.24;81.50;100679.94;5072478;28;45390;-68
2022/11/19 02:39:39;;;;;;;;;7.50;6.75;;;;;9.22;81.20;100681.84;5072352;28;46263;-68
2022/11/19 02:42:15;;;;;;;;;10.25;7.25;;;;;9.21;81.35;100677.47;5072011;27;45401;-67
2022/11/19 02:44:57;;;;;;;;;3.50;3.50;;;;;9.26;81.48;100683.41;5072761;27;45412;-68
2022/11/19 02:47:32;;;;;;;;;7.75;7.75;;;;;9.13;82.08;100661.91;5071064;28;45551;-68
2022/11/19 02:50:03;;;;;;;;;6.00;3.75;;;;;9.27;81.84;100674.44;5075227;28;47346;-67
2022/11/19 02:52:29;;;;;;;;;2.25;1.00;;;;;9.26;81.84;100667.44;5075234;28;45437;-68
2022/11/19 02:54:54;;;;;;;;;13.75;13.75;;;;;9.28;81.71;100664.69;5088983;27;45402;-68
2022/11/19 02:57:20;;;;;;;;;5.00;3.25;;;;;9.30;81.78;100679.63;5097733;27;45536;-68
2022/11/19 03:05:50;;;;;;;;;9.00;5.25;;;;;9.32;81.88;100672.41;5074761;28;45539;-68
2022/11/19 03:08:15;;;;;;;;;19.00;16.00;;;;;9.31;82.37;100673.34;5074414;28;45636;-68
2022/11/19 03:11:05;;;;;;;;;6.50;5.00;;;;;9.29;82.51;100675.25;5071223;27;45916;-68
2022/11/19 03:16:40;;;;;;;;;9.00;9.00;;;;;9.00;82.62;100643.09;5075634;28;45428;-67
2022/11/19 03:19:18;;;;;;;;;7.75;7.75;;;;;9.23;82.61;100691.53;5074860;28;45571;-67
2022/11/19 03:22:19;;;;;;;;;12.25;10.75;;;;;9.25;83.07;100689.66;5075153;27;47324;-68
2022/11/19 03:24:52;;;;;;;;;7.25;4.00;;;;;9.32;82.87;100685.72;4994972;28;45737;-67
2022/11/19 03:27:24;;;;;;;;;2.50;2.50;;;;;9.35;82.47;100687.34;4994490;28;45535;-67
2022/11/19 03:29:55;;;;;;;;;6.50;4.50;;;;;9.36;82.24;100687.25;4994859;28;45454;-68
2022/11/19 03:32:25;;;;;;;;;6.00;4.50;;;;;9.36;82.57;100687.25;4994632;28;46567;-68
2022/11/19 03:34:56;;;;;;;;;6.00;5.50;;;;;9.31;82.13;100677.81;4995026;28;45850;-67
2022/11/19 03:37:25;;;;;;;;;5.00;4.00;;;;;9.34;82.40;100689.16;4995102;28;45643;-68
2022/11/19 03:39:54;;;;;;;;;8.50;7.25;;;;;9.19;82.56;100671.34;5008640;28;45731;-67
2022/11/19 03:42:24;;;;;;;;;8.00;7.00;;;;;9.33;82.55;100686.59;5014379;28;45655;-67
2022/11/19 03:44:55;;;;;;;;;6.75;3.50;;;;;8.95;81.79;100625.66;4995472;28;45742;-67
2022/11/19 03:47:26;;;;;;;;;8.75;6.25;;;;;9.40;82.45;100691.47;5002924;28;45455;-68
2022/11/19 03:49:58;;;;;;;;;5.00;5.00;;;;;9.24;82.39;100663.97;4994797;28;45441;-67
2022/11/19 03:52:24;;;;;;;;;7.75;5.75;;;;;9.43;82.31;100691.31;5006912;28;47073;-67
2022/11/19 03:54:49;;;;;;;;;7.25;7.25;;;;;9.43;82.28;100690.44;5013890;28;45449;-67
2022/11/19 03:57:18;;;;;;;;;6.00;4.00;;;;;9.46;82.40;100694.75;5013273;28;45862;-67
2022/11/19 03:59:45;;;;;;;;;5.25;3.50;;;;;9.51;82.28;100698.00;5014399;28;45859;-67
2022/11/19 04:02:13;;;;;;;;;7.00;3.00;;;;;9.17;82.44;100644.81;5075962;27;46301;-68
2022/11/19 04:04:38;;;;;;;;;5.00;5.00;;;;;9.54;82.65;100704.03;5097453;27;45723;-68
2022/11/19 04:07:08;;;;;;;;;3.50;3.50;;;;;9.54;82.66;100703.16;5097285;27;45434;-68
2022/11/19 04:09:34;;;;;;;;;4.50;4.50;;;;;9.52;82.61;100699.75;5096411;27;45367;-67
2022/11/19 04:12:00;;;;;;;;;3.75;3.75;;;;;9.50;82.31;100696.28;5097074;27;46253;-67
2022/11/19 04:14:26;;;;;;;;;8.50;4.50;;;;;9.21;82.18;100649.03;5095831;27;46005;-68
2022/11/19 04:16:51;;;;;;;;;3.50;3.25;;;;;9.47;82.19;100704.44;5095984;27;45365;-68
2022/11/19 04:19:17;;;;;;;;;4.50;4.50;;;;;9.42;82.86;100705.56;5097440;27;45453;-68
2022/11/19 04:21:42;;;;;;;;;3.75;3.00;;;;;9.40;82.94;100712.75;5096459;27;46046;-69
2022/11/19 04:24:08;;;;;;;;;7.75;4.00;;;;;9.46;82.53;100713.38;5096935;27;45507;-69
2022/11/19 04:26:33;;;;;;;;;3.75;3.75;;;;;9.41;82.89;100711.81;5097297;27;45731;-69
2022/11/19 04:28:59;;;;;;;;;7.25;5.50;;;;;9.40;83.21;100712.75;5097491;27;45559;-69
2022/11/19 04:31:24;;;;;;;;;4.75;4.75;;;;;9.15;83.51;100667.13;5096978;27;47089;-68
2022/11/19 04:33:49;;;;;;;;;6.75;4.00;;;;;9.45;83.13;100723.19;5095520;27;45676;-68
2022/11/19 04:36:15;;;;;;;;;6.25;3.75;;;;;9.48;83.34;100715.00;5097432;27;45416;-68
2022/11/19 04:38:40;;;;;;;;;4.25;2.75;;;;;9.46;82.82;100726.69;5096517;27;45425;-69
2022/11/19 04:41:05;;;;;;;;;4.25;3.75;;;;;9.41;83.48;100724.28;5096874;27;47236;-68
2022/11/19 04:43:31;;;;;;;;;4.50;2.25;;;;;9.44;83.12;100729.44;5096742;27;45419;-68
2022/11/19 04:45:56;;;;;;;;;4.25;4.25;;;;;9.50;83.17;100733.56;5096805;27;45402;-69
2022/11/19 04:48:21;;;;;;;;;8.00;4.00;;;;;9.33;83.36;100711.41;5097244;27;45411;-69
2022/11/19 04:50:47;;;;;;;;;6.00;4.25;;;;;9.45;83.28;100735.63;5096915;27;47167;-68
2022/11/19 04:53:12;;;;;;;;;7.00;3.75;;;;;9.37;82.94;100712.94;5096482;27;45348;-66
2022/11/19 04:55:37;;;;;;;;;6.75;3.00;;;;;9.50;83.13;100737.09;5096746;27;45388;-66
2022/11/19 04:58:03;;;;;;;;;2.75;2.75;;;;;9.51;83.31;100735.28;5096714;27;45452;-68
2022/11/19 05:00:28;;;;;;;;;7.00;4.00;;;;;8.94;83.39;100651.41;5096215;27;47152;-67
2022/11/19 05:02:54;;;;;;;;;4.00;4.00;;;;;9.54;83.54;100746.66;5095900;27;45255;-65
2022/11/19 05:05:19;;;;;;;;;4.50;4.50;;;;;9.49;83.74;100745.16;5096427;27;45310;-67
2022/11/19 05:07:45;;;;;;;;;6.50;4.75;;;;;9.16;83.64;100696.31;5095888;27;45426;-66
2022/11/19 05:10:10;;;;;;;;;4.25;3.25;;;;;9.48;83.95;100746.13;5096660;27;47205;-66
2022/11/19 05:12:36;;;;;;;;;3.75;3.75;;;;;9.50;84.39;100754.88;5095344;27;45467;-67
2022/11/19 05:15:01;;;;;;;;;4.00;4.00;;;;;9.49;84.23;100754.03;5096128;27;45359;-67
2022/11/19 05:17:26;;;;;;;;;2.75;2.75;;;;;9.46;83.97;100751.53;5096436;27;45353;-67
2022/11/19 05:19:52;;;;;;;;;4.75;4.00;;;;;8.81;84.14;100655.66;5096332;27;46306;-67
2022/11/19 05:22:17;;;;;;;;;6.25;3.00;;;;;9.42;84.69;100748.16;5095977;27;45318;-67
2022/11/19 05:24:42;;;;;;;;;6.25;4.00;;;;;9.43;84.55;100746.34;5095145;27;45458;-67
2022/11/19 05:27:08;;;;;;;;;5.25;3.25;;;;;9.47;84.52;100749.72;5096095;27;45721;-67
2022/11/19 05:29:33;;;;;;;;;4.75;4.75;;;;;9.41;84.63;100746.44;5096225;27;46031;-67
2022/11/19 05:31:59;;;;;;;;;8.50;6.75;;;;;9.33;84.84;100740.69;5096485;27;45476;-68
2022/11/19 05:34:24;;;;;;;;;4.25;3.00;;;;;9.18;85.40;100745.03;5096326;27;45414;-68
2022/11/19 05:36:49;;;;;;;;;4.00;4.00;;;;;9.16;85.94;100746.03;5096708;27;45385;-67
2022/11/19 05:39:15;;;;;;;;;7.75;7.75;;;;;9.14;86.18;100748.78;5095848;27;45418;-67
2022/11/19 05:41:40;;;;;;;;;6.00;4.00;;;;;9.14;85.83;100738.16;5095782;27;45803;-68
2022/11/19 05:44:05;;;;;;;;;3.75;3.75;;;;;9.12;86.55;100742.69;5095985;27;45483;-69
2022/11/19 05:46:31;;;;;;;;;4.25;4.25;;;;;9.15;85.65;100739.88;5095996;27;45345;-68
2022/11/19 05:48:56;;;;;;;;;4.00;3.25;;;;;9.20;86.24;100739.63;5111878;27;46791;-68
2022/11/19 05:51:22;;;;;;;;;7.25;5.25;;;;;9.17;85.84;100737.97;5095424;27;45420;-66
2022/11/19 05:53:47;;;;;;;;;5.50;4.75;;;;;9.07;86.38;100728.78;5095773;27;45526;-69
2022/11/19 05:56:12;;;;;;;;;7.00;4.00;;;;;9.02;86.26;100739.66;5077649;27;45496;-68
2022/11/19 05:58:38;;;;;;;;;7.25;7.25;;;;;9.06;86.64;100743.03;5095121;27;47107;-69
2022/11/19 06:01:03;;;;;;;;;6.00;6.00;;;;;9.05;87.00;100739.47;5095576;27;45340;-69
2022/11/19 06:03:28;;;;;;;;;4.75;4.50;;;;;9.05;86.68;100742.16;5095497;27;45609;-68
2022/11/19 06:05:54;;;;;;;;;6.50;6.50;;;;;9.09;86.54;100741.03;5095780;27;45361;-68
2022/11/19 06:08:19;;;;;;;;;7.25;5.00;;;;;9.08;86.95;100738.47;5095383;27;46074;-68
2022/11/19 06:10:45;;;;;;;;;5.00;4.00;;;;;9.09;87.18;100734.88;5095840;27;45375;-68
2022/11/19 06:13:10;;;;;;;;;5.00;4.00;;;;;9.15;86.64;100731.91;5095647;27;45649;-68
2022/11/19 06:15:35;;;;;;;;;7.75;5.50;;;;;9.18;87.10;100738.84;5095680;27;45544;-68
2022/11/19 06:18:01;;;;;;;;;7.25;6.50;;;;;9.02;86.69;100713.03;5095561;27;45879;-68
2022/11/19 06:20:26;;;;;;;;;7.00;6.75;;;;;8.95;87.25;100702.81;5099113;27;45369;-68
2022/11/19 06:22:52;;;;;;;;;6.00;6.00;;;;;9.29;86.36;100740.94;5098256;27;45377;-68
2022/11/19 06:25:19;;;;;;;;;8.50;7.50;;;;;9.23;86.57;100739.44;5099074;27;45462;-68
2022/11/19 06:27:44;;;;;;;;;8.50;5.50;;;;;9.35;86.27;100757.44;5099070;27;46216;-68
2022/11/19 06:30:10;;;;;;;;;8.00;7.25;;;;;9.44;86.46;100761.41;5098976;27;45515;-69
2022/11/19 06:32:36;;;;;;;;;9.50;9.00;;;;;9.50;86.21;100770.84;5099475;27;45489;-69
2022/11/19 06:35:02;;;;;;;;;7.00;6.75;;;;;9.45;87.01;100780.88;5098373;27;45441;-68
2022/11/19 06:37:27;;;;;;;;;8.00;8.00;;;;;9.39;87.46;100769.66;5097211;27;45466;-69
2022/11/19 06:39:54;;;;;;;;;7.50;7.25;;;;;9.47;87.08;100781.69;5098649;27;45625;-68
2022/11/19 06:42:35;;;;;;;;;6.75;4.00;;;;;9.47;87.50;100785.19;5098245;27;45315;-69
2022/11/19 06:45:02;;;;;;;;;8.00;6.00;;;;;9.51;87.47;100791.22;5098790;27;45451;-69
2022/11/19 06:47:31;;;;;;;;;4.25;4.25;;;;;9.26;88.00;100765.91;5098090;27;45509;-67
2022/11/19 06:49:56;;;;;;;;;4.00;4.00;;;;;9.39;88.43;100790.06;5098406;27;45378;-68
2022/11/19 06:52:22;;;;;;;;;3.75;3.75;;;;;9.35;89.13;100797.38;5098343;27;45362;-68
2022/11/19 06:54:47;;;;;;;;;4.50;4.00;;;;;9.35;88.58;100793.84;5098431;27;45424;-68
2022/11/19 06:57:13;;;;;;;;;5.00;5.00;;;;;9.19;88.61;100767.16;5098298;27;46729;-68
2022/11/19 06:59:38;;;;;;;;;8.00;4.75;;;;;9.40;88.76;100791.78;5098726;27;45352;-68
2022/11/19 07:02:04;;;;;;;;;7.00;6.50;;;;;9.36;89.19;100801.72;5098335;27;45483;-68
2022/11/19 07:04:29;;;;;;;;;3.75;3.00;;;;;9.37;89.21;100798.13;5096753;27;45507;-67
2022/11/19 07:06:55;;;;;;;;;8.50;6.25;;;;;9.39;88.87;100806.91;5098096;27;45356;-68
2022/11/19 07:09:20;;;;;;;;;12.00;10.50;;;;;9.35;89.18;100810.69;5097961;27;45398;-69
2022/11/19 07:11:45;;;;;;;;;8.00;8.00;;;;;9.30;89.44;100804.75;5098684;27;45376;-69
2022/11/19 07:14:11;;;;;;;;;6.00;6.00;;;;;9.33;89.78;100823.22;5098597;27;45668;-70
2022/11/19 07:16:37;;;;;;;;;7.50;6.50;;;;;9.16;89.83;100793.94;5098632;27;46253;-68
2022/11/19 07:19:05;;;;;;;;;9.50;7.75;;;;;9.31;89.40;100813.56;5085899;27;45558;-68
2022/11/19 07:21:31;;;;;;;;;8.50;8.50;;;;;8.97;89.61;100757.66;5095201;27;45473;-68
2022/11/19 07:23:58;;;;;;;;;8.00;8.00;;;;;9.33;89.79;100835.66;5079835;27;45449;-69
2022/11/19 07:26:24;;;;;;;;;7.50;7.50;;;;;9.28;89.76;100829.72;5079145;28;45543;-70
2022/11/19 07:28:50;;;;;;;;;7.50;7.25;;;;;9.20;90.04;100822.13;5078676;27;45443;-68
2022/11/19 07:31:15;;;;;;;;;8.75;7.50;;;;;9.26;89.47;100835.97;5078102;27;45394;-69
2022/11/19 07:33:40;;;;;;;;;4.00;4.00;;;;;8.86;89.04;100752.03;5078200;27;45351;-69
2022/11/19 07:36:08;;;;;;;;;8.25;6.75;;;;;9.31;88.66;100840.19;5078538;27;45442;-69
2022/11/19 07:38:34;;;;;;;;;4.00;4.00;;;;;9.32;89.28;100836.59;5078622;27;45351;-69
2022/11/19 07:40:59;;;;;;;;;6.25;6.00;;;;;9.25;88.64;100833.41;5083193;27;45428;-69
2022/11/19 07:43:24;;;;;;;;;8.50;8.50;;;;;9.33;88.59;100847.16;5097537;27;45548;-69
2022/11/19 07:45:50;;;;;;;;;10.75;10.00;;;;;9.40;88.32;100845.03;5098734;27;46317;-68
2022/11/19 07:48:15;;;;;;;;;8.00;7.50;;;;;9.41;88.39;100852.09;5098756;27;45391;-69
2022/11/19 07:50:41;;;;;;;;;4.25;4.25;;;;;9.47;87.97;100862.41;5099082;27;45347;-68
2022/11/19 07:53:09;;;;;;;;;4.50;2.50;;;;;8.98;87.82;100778.00;5098369;27;45463;-69
2022/11/19 07:55:35;;;;;;;;;8.25;8.25;;;;;9.44;87.87;100859.91;5096858;27;47324;-69
2022/11/19 07:58:01;;;;;;;;;9.00;9.00;;;;;9.33;87.78;100833.84;5097697;27;45383;-69
2022/11/19 08:00:26;;;;;;;;;5.00;5.00;;;;;8.96;87.04;100774.59;5098500;27;45314;-68
2022/11/19 08:02:52;;;;;;;;;11.00;9.50;;;;;9.59;86.88;100876.88;5098239;27;45314;-68
2022/11/19 08:05:17;;;;;;;;;9.25;7.00;;;;;9.66;87.06;100883.59;5098104;27;46019;-69
2022/11/19 08:07:43;;;;;;;;;9.00;7.25;;;;;9.33;86.41;100828.53;5098732;27;45431;-70
2022/11/19 08:10:09;;;;;;;;;11.75;9.50;;;;;9.71;86.99;100886.03;5093141;27;45494;-68
2022/11/19 08:12:35;;;;;;;;;10.00;9.00;;;;;9.16;86.95;100785.97;5097527;27;45443;-68
2022/11/19 08:15:00;;;;;;;;;11.00;9.75;;;;;9.71;86.92;100886.88;5098660;27;45836;-68
2022/11/19 08:20:10;;;;;;;;;9.50;8.25;;;;;9.81;86.64;100899.72;5097835;27;45286;-68
2022/11/19 08:22:36;;;;;;;;;10.25;10.25;;;;;9.83;86.98;100905.84;5097887;27;45305;-68
2022/11/19 08:25:02;;;;;;;;;16.50;12.25;;;;;9.94;86.09;100906.94;5097567;27;46984;-68
2022/11/19 08:27:27;;;;;;;;;10.75;9.50;;;;;9.91;85.85;100908.94;5098376;27;45289;-69
2022/11/19 08:29:53;;;;;;;;;7.25;5.50;;;;;9.79;86.23;100888.28;5096668;27;45569;-68
2022/11/19 08:32:18;;;;;;;;;13.50;11.00;;;;;10.00;86.64;100918.22;5098485;27;45361;-68
2022/11/19 08:34:43;;;;;;;;;10.25;10.25;;;;;10.02;86.44;100927.88;5097621;27;46072;-67
2022/11/19 08:37:12;;;;;;;;;10.00;10.00;;;;;10.05;85.88;100933.03;5097854;27;45730;-67
2022/11/19 08:39:38;;;;;;;;;17.50;13.25;;;;;9.55;86.48;100851.34;5097671;27;45442;-67
2022/11/19 08:44:47;;;;;;;;;12.25;12.25;;;;;10.02;87.04;100932.34;5097776;27;45383;-68
2022/11/19 08:47:13;;;;;;;;;10.75;10.00;;;;;10.03;87.08;100929.59;5097644;27;45372;-68
2022/11/19 08:49:38;;;;;;;;;18.25;16.50;;;;;9.94;87.04;100922.94;5097932;27;45322;-69
2022/11/19 08:52:03;;;;;;;;;15.00;12.75;;;;;10.07;86.48;100941.81;5097927;27;45315;-68
2022/11/19 08:54:29;;;;;;;;;13.75;10.25;;;;;10.08;86.71;100938.22;5096880;27;45418;-68
2022/11/19 08:56:54;;;;;;;;;10.25;9.25;;;;;10.05;86.88;100933.03;5098106;27;45273;-68
2022/11/19 08:59:20;;;;;;;;;15.50;13.00;;;;;10.12;86.65;100935.38;5097067;27;45274;-67
2022/11/19 09:01:47;;;;;;;;;14.50;13.25;;;;;9.96;86.80;100922.88;5097632;27;45252;-67
2022/11/19 09:04:12;;;;;;;;;9.75;8.75;;;;;10.15;86.07;100941.41;5097450;27;46097;-67
2022/11/19 09:06:37;;;;;;;;;12.25;12.25;;;;;10.18;86.67;100943.91;5095187;27;45330;-67
2022/11/19 09:09:03;;;;;;;;;9.75;9.50;;;;;10.27;86.37;100946.06;5096807;27;45393;-67
2022/11/19 09:11:29;;;;;;;;;14.50;10.50;;;;;9.77;86.05;100859.91;5098277;27;45379;-67
2022/11/19 09:13:56;;;;;;;;;12.25;11.25;;;;;10.23;85.77;100935.63;5108502;27;47139;-67
2022/11/19 09:16:22;;;;;;;;;7.25;6.00;;;;;9.97;86.34;100907.75;5075485;27;45392;-67
2022/11/19 09:18:47;;;;;;;;;9.75;9.75;;;;;10.20;85.94;100942.03;5076142;27;45320;-69
2022/11/19 09:21:13;;;;;;;;;8.25;7.50;;;;;10.12;85.50;100938.03;5076610;27;45519;-69
2022/11/19 09:23:40;;;;;;;;;12.00;8.75;;;;;10.24;85.72;100946.25;5091391;27;45943;-69
2022/11/19 09:26:09;;;;;;;;;7.25;7.25;;;;;10.02;85.94;100922.53;5095233;27;45708;-69
2022/11/19 09:28:35;;;;;;;;;10.00;10.00;;;;;10.16;85.43;100937.78;5097221;27;45496;-69
2022/11/19 09:31:07;;;;;;;;;10.00;10.00;;;;;9.57;86.04;100830.84;5096175;27;45369;-69
2022/11/19 09:33:35;;;;;;;;;12.00;10.75;;;;;10.36;86.41;100957.19;5096647;27;46067;-69
2022/11/19 09:36:01;;;;;;;;;9.50;9.00;;;;;10.44;85.47;100966.47;5096301;27;45312;-68
2022/11/19 09:38:26;;;;;;;;;14.75;10.50;;;;;10.49;85.33;100965.41;5097038;27;45355;-71
2022/11/19 09:40:55;;;;;;;;;13.25;9.75;;;;;10.58;84.80;100968.41;5096586;27;45507;-69
2022/11/19 09:43:20;;;;;;;;;10.00;9.00;;;;;10.69;84.79;100961.59;5112674;27;46765;-68
2022/11/19 09:46:23;;;;;;;;;10.25;8.25;;;;;10.68;84.49;100963.41;5096987;27;45756;-69
2022/11/19 09:48:53;;;;;;;;;10.75;10.50;;;;;10.83;83.93;100960.81;5097533;27;45293;-69
2022/11/19 09:51:28;;;;;;;;;6.75;6.75;;;;;10.79;84.22;100953.94;5096573;27;45490;-68
2022/11/19 09:54:19;;;;;;;;;8.75;8.75;;;;;10.79;83.71;100957.47;5096348;27;47112;-69
2022/11/19 09:56:46;;;;;;;;;9.75;8.75;;;;;10.90;84.05;100957.69;5096250;27;45348;-69
2022/11/19 09:59:32;;;;;;;;;9.50;8.25;;;;;10.98;84.03;100965.28;5096577;27;45403;-68
2022/11/19 10:01:57;;;;;;;;;9.25;8.50;;;;;10.93;82.60;100941.53;5094975;27;45363;-69
2022/11/19 10:04:27;;;;;;;;;10.25;9.00;;;;;11.19;82.32;100962.31;5094700;27;46705;-68
2022/11/19 10:06:55;;;;;;;;;4.25;4.25;;;;;11.23;82.30;100969.22;5095270;27;45487;-68
2022/11/19 10:09:29;;;;;;;;;9.00;8.00;;;;;11.24;82.31;100965.56;5096723;27;45488;-68
2022/11/19 10:12:04;;;;;;;;;9.25;8.00;;;;;11.40;82.06;100966.41;5096439;27;45390;-68
2022/11/19 10:14:56;;;;;;;;;10.50;7.00;;;;;11.55;80.79;100971.75;5096186;27;46459;-68
2022/11/19 10:17:44;;;;;;;;;8.00;6.00;;;;;11.61;80.76;100969.59;5096411;27;45453;-68
2022/11/19 10:20:37;;;;;;;;;10.00;9.25;;;;;11.64;80.31;100971.22;5096031;27;45228;-69
2022/11/19 10:23:10;;;;;;;;;10.50;10.25;;;;;11.68;80.41;100964.72;5094649;27;45362;-69
2022/11/19 10:25:40;;;;;;;;;10.00;8.25;;;;;11.83;80.22;100962.09;5096376;27;47276;-68
2022/11/19 10:28:13;;;;;;;;;11.75;9.25;;;;;11.88;79.53;100949.31;5094766;27;45450;-69
2022/11/19 10:30:42;;;;;;;;;10.00;9.00;;;;;11.66;79.38;100931.03;5093325;27;45470;-67
2022/11/19 10:33:17;;;;;;;;;11.00;9.00;;;;;11.90;79.22;100958.06;5099172;27;45614;-68
2022/11/19 10:35:49;;;;;;;;;9.75;8.50;;;;;12.03;79.84;100964.44;5116679;27;46236;-68
2022/11/19 10:38:25;;;;;;;;;8.75;6.00;;;;;12.22;78.99;100957.94;5116778;27;45250;-68
2022/11/19 10:40:58;;;;;;;;;8.50;8.50;;;;;12.20;78.39;100923.28;5117072;27;45508;-68
2022/11/19 10:43:37;;;;;;;;;8.00;7.25;;;;;12.57;77.52;100962.88;5115143;27;45560;-68
2022/11/19 10:46:05;;;;;;;;;9.75;7.25;;;;;12.65;77.02;100939.13;5116431;27;47226;-68
2022/11/19 10:48:33;;;;;;;;;9.25;8.75;;;;;12.70;77.53;100950.41;5115916;27;45502;-68
2022/11/19 10:50:58;;;;;;;;;14.00;9.75;;;;;12.40;76.52;100897.03;5116252;27;45365;-68
2022/11/19 10:53:32;;;;;;;;;10.50;9.00;;;;;12.78;76.87;100944.53;5111630;27;45583;-68
2022/11/19 10:56:09;;;;;;;;;9.00;7.75;;;;;12.76;76.44;100925.91;5114814;27;47245;-68
2022/11/19 10:58:39;;;;;;;;;7.50;7.50;;;;;12.94;77.35;100942.59;5116198;27;45360;-69
2022/11/19 11:01:14;;;;;;;;;8.50;8.25;;;;;13.01;76.00;100951.06;5115839;27;45372;-69
2022/11/19 11:03:59;;;;;;;;;9.50;9.50;;;;;13.04;74.81;100926.75;5115378;27;45537;-68
2022/11/19 11:06:25;;;;;;;;;8.25;6.50;;;;;13.09;73.82;100946.06;5118175;27;45767;-68
2022/11/19 11:08:55;;;;;;;;;8.50;7.00;;;;;13.12;74.36;100942.31;5120012;27;45374;-68
2022/11/19 11:14:50;;;;;;;;;9.25;9.25;;;;;13.07;74.51;100944.44;5120168;27;45356;-67
2022/11/19 11:17:15;;;;;;;;;5.75;4.25;;;;;12.84;74.20;100943.28;5099893;27;45394;-68
2022/11/19 11:19:40;;;;;;;;;9.00;9.00;;;;;12.79;75.07;100944.47;5099604;27;45402;-68
2022/11/19 11:22:06;;;;;;;;;8.00;6.25;;;;;12.62;75.29;100900.03;5099552;27;45348;-68
2022/11/19 11:24:35;;;;;;;;;8.75;8.50;;;;;13.04;74.69;100940.16;5098504;27;45344;-68
2022/11/19 11:27:20;;;;;;;;;9.00;7.50;;;;;13.23;73.41;100936.25;5099982;27;45655;-69
2022/11/19 11:29:46;;;;;;;;;8.50;7.75;;;;;13.40;73.70;100933.31;5099003;27;45494;-67
2022/11/19 11:32:29;;;;;;;;;9.00;8.00;;;;;13.59;72.16;100938.25;5098473;27;45508;-68
2022/11/19 11:34:55;;;;;;;;;8.50;5.00;;;;;13.70;72.48;100928.59;5098414;27;45502;-68
2022/11/19 11:37:22;;;;;;;;;4.50;3.50;;;;;14.07;71.55;100942.13;5114817;27;47736;-68
2022/11/19 11:39:53;;;;;;;;;6.50;5.75;;;;;14.44;68.84;100939.47;5099540;27;45303;-67
2022/11/19 11:42:20;;;;;;;;;5.75;5.75;;;;;14.59;68.59;100933.00;5099155;27;45274;-68
2022/11/19 11:45:07;;;;;;;;;5.75;5.75;;;;;14.65;68.39;100942.44;5098253;27;45562;-67
2022/11/19 11:47:41;;;;;;;;;4.25;4.25;;;;;14.62;68.13;100937.28;5097679;27;46542;-67
2022/11/19 11:50:16;;;;;;;;;4.25;3.50;;;;;14.20;67.33;100888.44;5098089;27;45523;-67
2022/11/19 11:52:43;;;;;;;;;5.50;5.50;;;;;14.41;67.68;100942.38;5098773;27;45416;-68